sensor_id;sensor_type;location;lat;lon;timestamp;P1;durP1;ratioP1;P2;durP2;ratioP2
11735;SDS011;5924;51.398;7.088;2022-12-18T00:01:35;68.80;;;21.30;;
11735;SDS011;5924;51.398;7.088;2022-12-18T00:04:03;48.65;;;16.35;;
11735;SDS011;5924;51.398;7.088;2022-12-18T00:06:31;33.65;;;14.27;;
11735;SDS011;5924;51.398;7.088;2022-12-18T00:08:58;44.03;;;15.57;;
11735;SDS011;5924;51.398;7.088;2022-12-18T00:11:25;29.30;;;10.48;;
11735;SDS011;5924;51.398;7.088;2022-12-18T00:13:55;13.77;;;6.03;;
11735;SDS011;5924;51.398;7.088;2022-12-18T00:16:23;6.20;;;5.10;;
11735;SDS011;5924;51.398;7.088;2022-12-18T00:18:51;6.40;;;5.10;;
11735;SDS011;5924;51.398;7.088;2022-12-18T00:21:18;7.32;;;4.95;;
11735;SDS011;5924;51.398;7.088;2022-12-18T00:23:45;11.13;;;6.50;;
11735;SDS011;5924;51.398;7.088;2022-12-18T00:26:19;15.33;;;5.20;;
11735;SDS011;5924;51.398;7.088;2022-12-18T00:28:47;8.33;;;5.40;;
11735;SDS011;5924;51.398;7.088;2022-12-18T00:31:14;7.10;;;4.83;;
11735;SDS011;5924;51.398;7.088;2022-12-18T00:33:41;7.60;;;5.30;;
11735;SDS011;5924;51.398;7.088;2022-12-18T00:36:12;9.93;;;4.60;;
11735;SDS011;5924;51.398;7.088;2022-12-18T00:38:39;6.93;;;4.80;;
11735;SDS011;5924;51.398;7.088;2022-12-18T00:41:05;7.60;;;4.37;;
11735;SDS011;5924;51.398;7.088;2022-12-18T00:43:32;20.27;;;9.43;;
11735;SDS011;5924;51.398;7.088;2022-12-18T00:45:57;25.67;;;11.17;;
11735;SDS011;5924;51.398;7.088;2022-12-18T00:48:23;11.63;;;7.40;;
11735;SDS011;5924;51.398;7.088;2022-12-18T00:50:49;9.20;;;5.63;;
11735;SDS011;5924;51.398;7.088;2022-12-18T00:53:15;8.00;;;4.67;;
11735;SDS011;5924;51.398;7.088;2022-12-18T00:55:41;6.83;;;4.50;;
11735;SDS011;5924;51.398;7.088;2022-12-18T00:58:08;4.23;;;3.90;;
11735;SDS011;5924;51.398;7.088;2022-12-18T01:00:35;5.27;;;4.77;;
11735;SDS011;5924;51.398;7.088;2022-12-18T01:03:01;6.40;;;4.73;;
11735;SDS011;5924;51.398;7.088;2022-12-18T01:05:27;4.97;;;4.57;;
11735;SDS011;5924;51.398;7.088;2022-12-18T01:07:53;7.40;;;5.03;;
11735;SDS011;5924;51.398;7.088;2022-12-18T01:10:20;5.73;;;4.67;;
11735;SDS011;5924;51.398;7.088;2022-12-18T01:12:45;7.50;;;5.07;;
11735;SDS011;5924;51.398;7.088;2022-12-18T01:15:11;5.07;;;4.50;;
11735;SDS011;5924;51.398;7.088;2022-12-18T01:17:38;4.83;;;4.53;;
11735;SDS011;5924;51.398;7.088;2022-12-18T01:20:04;5.57;;;4.53;;
11735;SDS011;5924;51.398;7.088;2022-12-18T01:22:30;4.77;;;4.37;;
11735;SDS011;5924;51.398;7.088;2022-12-18T01:25:00;5.87;;;4.10;;
11735;SDS011;5924;51.398;7.088;2022-12-18T01:27:26;7.07;;;4.80;;
11735;SDS011;5924;51.398;7.088;2022-12-18T01:29:52;4.43;;;3.93;;
11735;SDS011;5924;51.398;7.088;2022-12-18T01:32:17;5.97;;;4.37;;
11735;SDS011;5924;51.398;7.088;2022-12-18T01:34:43;4.00;;;3.73;;
11735;SDS011;5924;51.398;7.088;2022-12-18T01:37:09;4.00;;;3.70;;
11735;SDS011;5924;51.398;7.088;2022-12-18T01:39:35;5.17;;;4.70;;
11735;SDS011;5924;51.398;7.088;2022-12-18T01:42:08;3.93;;;3.70;;
11735;SDS011;5924;51.398;7.088;2022-12-18T01:50:29;4.13;;;3.83;;
11735;SDS011;5924;51.398;7.088;2022-12-18T01:53:21;4.73;;;4.23;;
11735;SDS011;5924;51.398;7.088;2022-12-18T01:55:52;4.63;;;4.20;;
11735;SDS011;5924;51.398;7.088;2022-12-18T01:58:23;5.53;;;4.20;;
11735;SDS011;5924;51.398;7.088;2022-12-18T02:01:09;6.73;;;4.17;;
11735;SDS011;5924;51.398;7.088;2022-12-18T02:03:34;4.80;;;4.10;;
11735;SDS011;5924;51.398;7.088;2022-12-18T02:06:05;5.43;;;4.70;;
11735;SDS011;5924;51.398;7.088;2022-12-18T02:08:50;6.23;;;4.93;;
11735;SDS011;5924;51.398;7.088;2022-12-18T02:14:21;4.20;;;3.80;;
11735;SDS011;5924;51.398;7.088;2022-12-18T02:16:59;7.27;;;4.40;;
11735;SDS011;5924;51.398;7.088;2022-12-18T02:25:11;4.13;;;3.83;;
11735;SDS011;5924;51.398;7.088;2022-12-18T02:27:38;5.67;;;4.07;;
11735;SDS011;5924;51.398;7.088;2022-12-18T02:30:06;4.30;;;4.00;;
11735;SDS011;5924;51.398;7.088;2022-12-18T02:32:43;4.67;;;4.27;;
11735;SDS011;5924;51.398;7.088;2022-12-18T02:35:13;6.37;;;4.70;;
11735;SDS011;5924;51.398;7.088;2022-12-18T02:37:43;7.17;;;5.00;;
11735;SDS011;5924;51.398;7.088;2022-12-18T02:40:11;4.70;;;4.30;;
11735;SDS011;5924;51.398;7.088;2022-12-18T02:42:40;6.43;;;5.23;;
11735;SDS011;5924;51.398;7.088;2022-12-18T02:45:06;6.57;;;5.30;;
11735;SDS011;5924;51.398;7.088;2022-12-18T02:47:34;7.70;;;4.90;;
11735;SDS011;5924;51.398;7.088;2022-12-18T02:52:43;5.93;;;4.17;;
11735;SDS011;5924;51.398;7.088;2022-12-18T03:00:19;9.60;;;4.37;;
11735;SDS011;5924;51.398;7.088;2022-12-18T03:02:51;5.13;;;4.50;;
11735;SDS011;5924;51.398;7.088;2022-12-18T03:05:21;6.20;;;4.73;;
11735;SDS011;5924;51.398;7.088;2022-12-18T03:10:53;5.77;;;4.70;;
11735;SDS011;5924;51.398;7.088;2022-12-18T03:13:33;4.93;;;4.43;;
11735;SDS011;5924;51.398;7.088;2022-12-18T03:16:02;4.67;;;4.20;;
11735;SDS011;5924;51.398;7.088;2022-12-18T03:18:38;4.67;;;4.37;;
11735;SDS011;5924;51.398;7.088;2022-12-18T03:21:28;4.57;;;4.27;;
11735;SDS011;5924;51.398;7.088;2022-12-18T03:23:59;5.73;;;4.10;;
11735;SDS011;5924;51.398;7.088;2022-12-18T03:26:28;4.70;;;4.40;;
11735;SDS011;5924;51.398;7.088;2022-12-18T03:29:03;5.20;;;4.70;;
11735;SDS011;5924;51.398;7.088;2022-12-18T03:31:32;5.83;;;5.20;;
11735;SDS011;5924;51.398;7.088;2022-12-18T03:34:01;5.57;;;4.80;;
11735;SDS011;5924;51.398;7.088;2022-12-18T03:36:37;4.10;;;3.90;;
11735;SDS011;5924;51.398;7.088;2022-12-18T03:39:06;4.70;;;4.40;;
11735;SDS011;5924;51.398;7.088;2022-12-18T03:41:32;4.60;;;3.87;;
11735;SDS011;5924;51.398;7.088;2022-12-18T03:44:08;4.43;;;4.03;;
11735;SDS011;5924;51.398;7.088;2022-12-18T03:49:20;4.47;;;4.07;;
11735;SDS011;5924;51.398;7.088;2022-12-18T03:51:53;4.57;;;4.20;;
11735;SDS011;5924;51.398;7.088;2022-12-18T03:54:26;6.43;;;4.27;;
11735;SDS011;5924;51.398;7.088;2022-12-18T03:56:56;4.40;;;4.13;;
11735;SDS011;5924;51.398;7.088;2022-12-18T03:59:26;4.30;;;4.00;;
11735;SDS011;5924;51.398;7.088;2022-12-18T04:01:54;5.47;;;4.97;;
11735;SDS011;5924;51.398;7.088;2022-12-18T04:04:22;5.73;;;4.67;;
11735;SDS011;5924;51.398;7.088;2022-12-18T04:06:49;5.80;;;4.67;;
11735;SDS011;5924;51.398;7.088;2022-12-18T04:09:16;4.07;;;3.87;;
11735;SDS011;5924;51.398;7.088;2022-12-18T04:11:41;4.27;;;4.00;;
11735;SDS011;5924;51.398;7.088;2022-12-18T04:14:10;4.90;;;4.27;;
11735;SDS011;5924;51.398;7.088;2022-12-18T04:16:36;6.97;;;4.07;;
11735;SDS011;5924;51.398;7.088;2022-12-18T04:19:02;3.80;;;3.60;;
11735;SDS011;5924;51.398;7.088;2022-12-18T04:21:28;4.20;;;3.90;;
11735;SDS011;5924;51.398;7.088;2022-12-18T04:23:53;5.13;;;4.67;;
11735;SDS011;5924;51.398;7.088;2022-12-18T04:26:19;4.87;;;4.47;;
11735;SDS011;5924;51.398;7.088;2022-12-18T04:28:45;7.30;;;4.10;;
11735;SDS011;5924;51.398;7.088;2022-12-18T04:31:10;4.87;;;4.47;;
11735;SDS011;5924;51.398;7.088;2022-12-18T04:33:36;4.60;;;4.20;;
11735;SDS011;5924;51.398;7.088;2022-12-18T04:36:02;3.60;;;3.30;;
11735;SDS011;5924;51.398;7.088;2022-12-18T04:38:27;4.50;;;4.20;;
11735;SDS011;5924;51.398;7.088;2022-12-18T04:40:53;4.37;;;4.17;;
11735;SDS011;5924;51.398;7.088;2022-12-18T04:43:19;3.53;;;3.30;;
11735;SDS011;5924;51.398;7.088;2022-12-18T04:45:44;4.17;;;3.77;;
11735;SDS011;5924;51.398;7.088;2022-12-18T04:48:10;4.90;;;3.43;;
11735;SDS011;5924;51.398;7.088;2022-12-18T04:50:36;6.90;;;4.13;;
11735;SDS011;5924;51.398;7.088;2022-12-18T04:53:01;6.60;;;3.77;;
11735;SDS011;5924;51.398;7.088;2022-12-18T04:55:27;4.40;;;3.50;;
11735;SDS011;5924;51.398;7.088;2022-12-18T04:57:52;3.17;;;2.97;;
11735;SDS011;5924;51.398;7.088;2022-12-18T05:00:18;4.70;;;3.67;;
11735;SDS011;5924;51.398;7.088;2022-12-18T05:02:44;3.33;;;3.13;;
11735;SDS011;5924;51.398;7.088;2022-12-18T05:05:10;4.70;;;3.20;;
11735;SDS011;5924;51.398;7.088;2022-12-18T05:07:36;4.17;;;3.67;;
11735;SDS011;5924;51.398;7.088;2022-12-18T05:10:01;3.63;;;3.40;;
11735;SDS011;5924;51.398;7.088;2022-12-18T05:12:28;3.67;;;3.40;;
11735;SDS011;5924;51.398;7.088;2022-12-18T05:14:53;3.50;;;3.10;;
11735;SDS011;5924;51.398;7.088;2022-12-18T05:17:19;5.17;;;2.53;;
11735;SDS011;5924;51.398;7.088;2022-12-18T05:19:45;4.10;;;3.47;;
11735;SDS011;5924;51.398;7.088;2022-12-18T05:22:10;3.33;;;3.23;;
11735;SDS011;5924;51.398;7.088;2022-12-18T05:24:36;3.50;;;3.27;;
11735;SDS011;5924;51.398;7.088;2022-12-18T05:27:02;3.50;;;3.30;;
11735;SDS011;5924;51.398;7.088;2022-12-18T05:29:28;3.00;;;2.80;;
11735;SDS011;5924;51.398;7.088;2022-12-18T05:31:53;3.83;;;3.00;;
11735;SDS011;5924;51.398;7.088;2022-12-18T05:34:19;3.00;;;2.87;;
11735;SDS011;5924;51.398;7.088;2022-12-18T05:36:45;3.80;;;3.50;;
11735;SDS011;5924;51.398;7.088;2022-12-18T05:39:10;6.27;;;2.47;;
11735;SDS011;5924;51.398;7.088;2022-12-18T05:41:36;2.40;;;2.30;;
11735;SDS011;5924;51.398;7.088;2022-12-18T05:44:01;5.10;;;3.03;;
11735;SDS011;5924;51.398;7.088;2022-12-18T05:46:27;3.93;;;3.37;;
11735;SDS011;5924;51.398;7.088;2022-12-18T05:48:53;2.90;;;2.70;;
11735;SDS011;5924;51.398;7.088;2022-12-18T05:51:19;6.27;;;3.83;;
11735;SDS011;5924;51.398;7.088;2022-12-18T05:53:47;3.97;;;3.73;;
11735;SDS011;5924;51.398;7.088;2022-12-18T05:56:14;3.17;;;3.00;;
11735;SDS011;5924;51.398;7.088;2022-12-18T05:58:42;3.50;;;3.20;;
11735;SDS011;5924;51.398;7.088;2022-12-18T06:01:09;3.03;;;2.83;;
11735;SDS011;5924;51.398;7.088;2022-12-18T06:03:37;4.23;;;2.80;;
11735;SDS011;5924;51.398;7.088;2022-12-18T06:06:03;3.70;;;3.30;;
11735;SDS011;5924;51.398;7.088;2022-12-18T06:08:29;3.90;;;2.53;;
11735;SDS011;5924;51.398;7.088;2022-12-18T06:10:54;3.23;;;2.93;;
11735;SDS011;5924;51.398;7.088;2022-12-18T06:13:20;2.70;;;2.60;;
11735;SDS011;5924;51.398;7.088;2022-12-18T06:15:46;3.40;;;3.23;;
11735;SDS011;5924;51.398;7.088;2022-12-18T06:18:12;3.97;;;3.67;;
11735;SDS011;5924;51.398;7.088;2022-12-18T06:20:37;3.60;;;3.20;;
11735;SDS011;5924;51.398;7.088;2022-12-18T06:23:05;2.97;;;2.87;;
11735;SDS011;5924;51.398;7.088;2022-12-18T06:25:31;3.20;;;2.90;;
11735;SDS011;5924;51.398;7.088;2022-12-18T06:27:57;3.97;;;3.77;;
11735;SDS011;5924;51.398;7.088;2022-12-18T06:30:23;2.60;;;2.50;;
11735;SDS011;5924;51.398;7.088;2022-12-18T06:32:49;3.63;;;2.90;;
11735;SDS011;5924;51.398;7.088;2022-12-18T06:35:15;4.10;;;3.80;;
11735;SDS011;5924;51.398;7.088;2022-12-18T06:37:41;3.10;;;2.90;;
11735;SDS011;5924;51.398;7.088;2022-12-18T06:40:07;4.53;;;4.27;;
11735;SDS011;5924;51.398;7.088;2022-12-18T06:42:33;4.10;;;3.30;;
11735;SDS011;5924;51.398;7.088;2022-12-18T06:44:59;16.77;;;7.37;;
11735;SDS011;5924;51.398;7.088;2022-12-18T06:47:24;21.77;;;10.57;;
11735;SDS011;5924;51.398;7.088;2022-12-18T06:49:50;10.57;;;6.87;;
11735;SDS011;5924;51.398;7.088;2022-12-18T06:52:15;8.03;;;5.60;;
11735;SDS011;5924;51.398;7.088;2022-12-18T06:54:41;5.47;;;4.97;;
11735;SDS011;5924;51.398;7.088;2022-12-18T06:57:06;3.83;;;3.53;;
11735;SDS011;5924;51.398;7.088;2022-12-18T06:59:32;2.93;;;2.80;;
11735;SDS011;5924;51.398;7.088;2022-12-18T07:01:58;3.57;;;3.27;;
11735;SDS011;5924;51.398;7.088;2022-12-18T07:04:27;3.60;;;3.27;;
11735;SDS011;5924;51.398;7.088;2022-12-18T07:06:54;3.20;;;3.00;;
11735;SDS011;5924;51.398;7.088;2022-12-18T07:09:19;3.67;;;3.30;;
11735;SDS011;5924;51.398;7.088;2022-12-18T07:11:45;5.23;;;4.63;;
11735;SDS011;5924;51.398;7.088;2022-12-18T07:14:11;4.33;;;3.93;;
11735;SDS011;5924;51.398;7.088;2022-12-18T07:16:36;3.63;;;3.43;;
11735;SDS011;5924;51.398;7.088;2022-12-18T07:19:02;3.00;;;2.83;;
11735;SDS011;5924;51.398;7.088;2022-12-18T07:21:27;3.63;;;3.37;;
11735;SDS011;5924;51.398;7.088;2022-12-18T07:23:53;5.10;;;4.53;;
11735;SDS011;5924;51.398;7.088;2022-12-18T07:26:20;4.27;;;3.90;;
11735;SDS011;5924;51.398;7.088;2022-12-18T07:28:46;5.60;;;4.13;;
11735;SDS011;5924;51.398;7.088;2022-12-18T07:31:16;5.80;;;4.03;;
11735;SDS011;5924;51.398;7.088;2022-12-18T07:33:44;5.47;;;4.17;;
11735;SDS011;5924;51.398;7.088;2022-12-18T07:36:11;4.70;;;3.97;;
11735;SDS011;5924;51.398;7.088;2022-12-18T07:38:37;3.70;;;3.40;;
11735;SDS011;5924;51.398;7.088;2022-12-18T07:41:11;5.57;;;3.93;;
11735;SDS011;5924;51.398;7.088;2022-12-18T07:43:38;3.93;;;3.40;;
11735;SDS011;5924;51.398;7.088;2022-12-18T07:46:05;4.53;;;4.13;;
11735;SDS011;5924;51.398;7.088;2022-12-18T07:48:31;4.53;;;4.00;;
11735;SDS011;5924;51.398;7.088;2022-12-18T07:51:04;5.37;;;3.77;;
11735;SDS011;5924;51.398;7.088;2022-12-18T07:53:31;4.27;;;3.97;;
11735;SDS011;5924;51.398;7.088;2022-12-18T07:55:58;4.30;;;3.33;;
11735;SDS011;5924;51.398;7.088;2022-12-18T07:58:25;8.60;;;3.60;;
11735;SDS011;5924;51.398;7.088;2022-12-18T08:00:51;3.43;;;3.20;;
11735;SDS011;5924;51.398;7.088;2022-12-18T08:03:18;4.00;;;3.70;;
11735;SDS011;5924;51.398;7.088;2022-12-18T08:05:44;4.97;;;3.50;;
11735;SDS011;5924;51.398;7.088;2022-12-18T08:08:09;3.97;;;3.73;;
11735;SDS011;5924;51.398;7.088;2022-12-18T08:10:35;3.73;;;3.50;;
11735;SDS011;5924;51.398;7.088;2022-12-18T08:13:02;4.27;;;3.87;;
11735;SDS011;5924;51.398;7.088;2022-12-18T08:15:27;3.43;;;3.20;;
11735;SDS011;5924;51.398;7.088;2022-12-18T08:17:56;3.70;;;3.50;;
11735;SDS011;5924;51.398;7.088;2022-12-18T08:20:22;3.83;;;3.13;;
11735;SDS011;5924;51.398;7.088;2022-12-18T08:22:47;3.33;;;3.03;;
11735;SDS011;5924;51.398;7.088;2022-12-18T08:25:13;3.73;;;3.47;;
11735;SDS011;5924;51.398;7.088;2022-12-18T08:27:39;3.50;;;3.20;;
11735;SDS011;5924;51.398;7.088;2022-12-18T08:30:04;3.53;;;3.23;;
11735;SDS011;5924;51.398;7.088;2022-12-18T08:32:31;3.27;;;3.07;;
11735;SDS011;5924;51.398;7.088;2022-12-18T08:34:58;3.37;;;3.10;;
11735;SDS011;5924;51.398;7.088;2022-12-18T08:37:23;3.63;;;3.33;;
11735;SDS011;5924;51.398;7.088;2022-12-18T08:39:49;5.77;;;3.20;;
11735;SDS011;5924;51.398;7.088;2022-12-18T08:42:15;4.43;;;4.03;;
11735;SDS011;5924;51.398;7.088;2022-12-18T08:45:00;2.80;;;2.70;;
11735;SDS011;5924;51.398;7.088;2022-12-18T08:47:25;5.00;;;3.30;;
11735;SDS011;5924;51.398;7.088;2022-12-18T08:49:51;3.53;;;3.23;;
11735;SDS011;5924;51.398;7.088;2022-12-18T08:52:17;3.97;;;3.53;;
11735;SDS011;5924;51.398;7.088;2022-12-18T08:54:42;3.33;;;3.13;;
11735;SDS011;5924;51.398;7.088;2022-12-18T08:57:08;3.57;;;3.47;;
11735;SDS011;5924;51.398;7.088;2022-12-18T08:59:34;3.53;;;3.33;;
11735;SDS011;5924;51.398;7.088;2022-12-18T09:02:00;8.00;;;3.20;;
11735;SDS011;5924;51.398;7.088;2022-12-18T09:04:25;5.13;;;3.43;;
11735;SDS011;5924;51.398;7.088;2022-12-18T09:06:51;4.50;;;3.27;;
11735;SDS011;5924;51.398;7.088;2022-12-18T09:09:19;3.03;;;2.87;;
11735;SDS011;5924;51.398;7.088;2022-12-18T09:11:46;3.47;;;3.17;;
11735;SDS011;5924;51.398;7.088;2022-12-18T09:14:11;3.80;;;3.50;;
11735;SDS011;5924;51.398;7.088;2022-12-18T09:16:37;4.13;;;3.73;;
11735;SDS011;5924;51.398;7.088;2022-12-18T09:19:03;3.83;;;3.30;;
11735;SDS011;5924;51.398;7.088;2022-12-18T09:21:31;3.03;;;2.93;;
11735;SDS011;5924;51.398;7.088;2022-12-18T09:23:58;13.93;;;8.13;;
11735;SDS011;5924;51.398;7.088;2022-12-18T09:26:24;7.93;;;7.13;;
11735;SDS011;5924;51.398;7.088;2022-12-18T09:28:50;5.30;;;4.63;;
11735;SDS011;5924;51.398;7.088;2022-12-18T09:31:17;4.57;;;4.37;;
11735;SDS011;5924;51.398;7.088;2022-12-18T09:33:44;4.93;;;4.73;;
11735;SDS011;5924;51.398;7.088;2022-12-18T09:36:14;5.03;;;3.70;;
11735;SDS011;5924;51.398;7.088;2022-12-18T09:38:40;4.73;;;4.30;;
11735;SDS011;5924;51.398;7.088;2022-12-18T09:43:51;3.10;;;2.90;;
11735;SDS011;5924;51.398;7.088;2022-12-18T09:46:28;4.27;;;3.97;;
11735;SDS011;5924;51.398;7.088;2022-12-18T09:48:59;4.20;;;3.93;;
11735;SDS011;5924;51.398;7.088;2022-12-18T09:51:45;6.33;;;3.40;;
11735;SDS011;5924;51.398;7.088;2022-12-18T09:54:24;8.27;;;3.47;;
11735;SDS011;5924;51.398;7.088;2022-12-18T09:56:54;3.27;;;3.13;;
11735;SDS011;5924;51.398;7.088;2022-12-18T09:59:24;3.67;;;3.40;;
11735;SDS011;5924;51.398;7.088;2022-12-18T10:01:56;4.00;;;3.13;;
11735;SDS011;5924;51.398;7.088;2022-12-18T10:04:23;4.00;;;3.40;;
11735;SDS011;5924;51.398;7.088;2022-12-18T10:07:33;4.50;;;3.30;;
11735;SDS011;5924;51.398;7.088;2022-12-18T10:12:25;3.10;;;3.00;;
11735;SDS011;5924;51.398;7.088;2022-12-18T10:15:07;3.23;;;3.00;;
11735;SDS011;5924;51.398;7.088;2022-12-18T10:17:39;3.87;;;3.23;;
11735;SDS011;5924;51.398;7.088;2022-12-18T10:20:16;3.60;;;3.40;;
11735;SDS011;5924;51.398;7.088;2022-12-18T10:28:14;4.30;;;4.00;;
11735;SDS011;5924;51.398;7.088;2022-12-18T10:30:41;5.10;;;4.60;;
11735;SDS011;5924;51.398;7.088;2022-12-18T10:33:14;3.03;;;2.93;;
11735;SDS011;5924;51.398;7.088;2022-12-18T10:35:47;3.30;;;3.20;;
11735;SDS011;5924;51.398;7.088;2022-12-18T10:43:23;3.13;;;2.93;;
11735;SDS011;5924;51.398;7.088;2022-12-18T10:45:59;3.43;;;3.23;;
11735;SDS011;5924;51.398;7.088;2022-12-18T10:48:26;3.33;;;3.07;;
11735;SDS011;5924;51.398;7.088;2022-12-18T10:50:52;3.70;;;3.47;;
11735;SDS011;5924;51.398;7.088;2022-12-18T10:53:28;3.67;;;3.40;;
11735;SDS011;5924;51.398;7.088;2022-12-18T10:55:57;3.63;;;3.43;;
11735;SDS011;5924;51.398;7.088;2022-12-18T10:58:28;3.23;;;3.00;;
11735;SDS011;5924;51.398;7.088;2022-12-18T11:03:40;3.37;;;3.03;;
11735;SDS011;5924;51.398;7.088;2022-12-18T11:06:10;3.73;;;3.43;;
11735;SDS011;5924;51.398;7.088;2022-12-18T11:08:41;5.70;;;3.10;;
11735;SDS011;5924;51.398;7.088;2022-12-18T11:11:21;3.60;;;3.50;;
11735;SDS011;5924;51.398;7.088;2022-12-18T11:13:54;3.80;;;3.50;;
11735;SDS011;5924;51.398;7.088;2022-12-18T11:16:24;3.57;;;3.37;;
11735;SDS011;5924;51.398;7.088;2022-12-18T11:18:51;4.20;;;3.80;;
11735;SDS011;5924;51.398;7.088;2022-12-18T11:21:16;6.30;;;4.03;;
11735;SDS011;5924;51.398;7.088;2022-12-18T11:23:52;3.40;;;3.20;;
11735;SDS011;5924;51.398;7.088;2022-12-18T11:26:18;5.23;;;4.00;;
11735;SDS011;5924;51.398;7.088;2022-12-18T11:29:27;3.73;;;3.43;;
11735;SDS011;5924;51.398;7.088;2022-12-18T11:31:42;3.60;;;3.40;;
11735;SDS011;5924;51.398;7.088;2022-12-18T11:34:16;10.90;;;3.87;;
11735;SDS011;5924;51.398;7.088;2022-12-18T11:36:51;3.67;;;3.43;;
11735;SDS011;5924;51.398;7.088;2022-12-18T11:39:20;4.33;;;3.40;;
11735;SDS011;5924;51.398;7.088;2022-12-18T11:42:14;6.50;;;3.50;;
11735;SDS011;5924;51.398;7.088;2022-12-18T11:51:33;5.20;;;3.80;;
11735;SDS011;5924;51.398;7.088;2022-12-18T11:54:13;3.50;;;3.20;;
11735;SDS011;5924;51.398;7.088;2022-12-18T11:56:50;5.53;;;3.53;;
11735;SDS011;5924;51.398;7.088;2022-12-18T12:03:02;3.90;;;3.70;;
11735;SDS011;5924;51.398;7.088;2022-12-18T12:15:50;3.60;;;3.33;;
11735;SDS011;5924;51.398;7.088;2022-12-18T12:23:39;4.23;;;3.63;;
11735;SDS011;5924;51.398;7.088;2022-12-18T12:29:40;4.20;;;3.97;;
11735;SDS011;5924;51.398;7.088;2022-12-18T12:40:23;5.57;;;4.40;;
11735;SDS011;5924;51.398;7.088;2022-12-18T12:42:56;4.63;;;4.23;;
11735;SDS011;5924;51.398;7.088;2022-12-18T12:45:40;3.93;;;3.63;;
11735;SDS011;5924;51.398;7.088;2022-12-18T12:48:18;3.83;;;3.50;;
11735;SDS011;5924;51.398;7.088;2022-12-18T12:50:46;4.20;;;3.90;;
11735;SDS011;5924;51.398;7.088;2022-12-18T12:53:15;4.93;;;4.40;;
11735;SDS011;5924;51.398;7.088;2022-12-18T12:55:51;7.10;;;4.57;;
11735;SDS011;5924;51.398;7.088;2022-12-18T12:58:31;5.27;;;4.80;;
11735;SDS011;5924;51.398;7.088;2022-12-18T13:01:08;5.73;;;5.10;;
11735;SDS011;5924;51.398;7.088;2022-12-18T13:09:18;4.83;;;4.47;;
11735;SDS011;5924;51.398;7.088;2022-12-18T13:11:44;8.23;;;5.20;;
11735;SDS011;5924;51.398;7.088;2022-12-18T13:14:34;6.93;;;5.07;;
11735;SDS011;5924;51.398;7.088;2022-12-18T13:20:13;5.53;;;5.10;;
11735;SDS011;5924;51.398;7.088;2022-12-18T13:22:46;6.40;;;4.77;;
11735;SDS011;5924;51.398;7.088;2022-12-18T13:48:47;7.83;;;6.17;;
11735;SDS011;5924;51.398;7.088;2022-12-18T13:51:44;6.53;;;5.90;;
11735;SDS011;5924;51.398;7.088;2022-12-18T13:54:23;7.23;;;6.10;;
11735;SDS011;5924;51.398;7.088;2022-12-18T13:57:04;9.37;;;5.63;;
11735;SDS011;5924;51.398;7.088;2022-12-18T13:59:49;8.07;;;5.70;;
11735;SDS011;5924;51.398;7.088;2022-12-18T14:02:16;10.03;;;6.70;;
11735;SDS011;5924;51.398;7.088;2022-12-18T14:04:46;13.17;;;7.20;;
11735;SDS011;5924;51.398;7.088;2022-12-18T14:07:21;10.70;;;7.00;;
11735;SDS011;5924;51.398;7.088;2022-12-18T14:09:58;7.90;;;7.10;;
11735;SDS011;5924;51.398;7.088;2022-12-18T14:12:26;12.30;;;7.37;;
11735;SDS011;5924;51.398;7.088;2022-12-18T14:17:42;8.37;;;7.30;;
11735;SDS011;5924;51.398;7.088;2022-12-18T14:20:12;10.20;;;6.37;;
11735;SDS011;5924;51.398;7.088;2022-12-18T14:22:42;12.30;;;8.10;;
11735;SDS011;5924;51.398;7.088;2022-12-18T14:25:24;12.20;;;8.20;;
11735;SDS011;5924;51.398;7.088;2022-12-18T14:27:52;10.30;;;7.17;;
11735;SDS011;5924;51.398;7.088;2022-12-18T14:30:28;12.13;;;7.63;;
11735;SDS011;5924;51.398;7.088;2022-12-18T14:33:15;9.37;;;6.90;;
11735;SDS011;5924;51.398;7.088;2022-12-18T14:43:34;11.10;;;7.63;;
11735;SDS011;5924;51.398;7.088;2022-12-18T14:46:02;11.67;;;8.57;;
11735;SDS011;5924;51.398;7.088;2022-12-18T14:51:02;13.80;;;8.33;;
11735;SDS011;5924;51.398;7.088;2022-12-18T14:53:53;10.03;;;8.20;;
11735;SDS011;5924;51.398;7.088;2022-12-18T14:56:27;13.93;;;8.80;;
11735;SDS011;5924;51.398;7.088;2022-12-18T14:58:56;11.50;;;8.53;;
11735;SDS011;5924;51.398;7.088;2022-12-18T15:01:26;12.87;;;8.73;;
11735;SDS011;5924;51.398;7.088;2022-12-18T15:03:59;17.20;;;9.63;;
11735;SDS011;5924;51.398;7.088;2022-12-18T15:06:28;11.90;;;8.10;;
11735;SDS011;5924;51.398;7.088;2022-12-18T15:08:58;12.90;;;8.83;;
11735;SDS011;5924;51.398;7.088;2022-12-18T15:11:29;14.67;;;8.70;;
11735;SDS011;5924;51.398;7.088;2022-12-18T15:13:59;13.90;;;8.43;;
11735;SDS011;5924;51.398;7.088;2022-12-18T15:16:49;14.40;;;8.87;;
11735;SDS011;5924;51.398;7.088;2022-12-18T15:19:20;12.10;;;8.73;;
11735;SDS011;5924;51.398;7.088;2022-12-18T15:21:47;18.03;;;9.03;;
11735;SDS011;5924;51.398;7.088;2022-12-18T15:24:23;12.03;;;8.90;;
11735;SDS011;5924;51.398;7.088;2022-12-18T15:26:52;18.70;;;8.93;;
11735;SDS011;5924;51.398;7.088;2022-12-18T15:29:19;18.33;;;9.13;;
11735;SDS011;5924;51.398;7.088;2022-12-18T15:32:00;18.03;;;8.80;;
11735;SDS011;5924;51.398;7.088;2022-12-18T15:34:28;16.53;;;9.63;;
11735;SDS011;5924;51.398;7.088;2022-12-18T15:36:54;12.63;;;8.50;;
11735;SDS011;5924;51.398;7.088;2022-12-18T15:39:20;15.97;;;9.83;;
11735;SDS011;5924;51.398;7.088;2022-12-18T15:41:45;12.50;;;8.90;;
11735;SDS011;5924;51.398;7.088;2022-12-18T15:44:30;11.17;;;8.10;;
11735;SDS011;5924;51.398;7.088;2022-12-18T15:46:56;10.13;;;7.73;;
11735;SDS011;5924;51.398;7.088;2022-12-18T15:49:22;14.83;;;9.90;;
11735;SDS011;5924;51.398;7.088;2022-12-18T15:51:49;15.80;;;9.70;;
11735;SDS011;5924;51.398;7.088;2022-12-18T15:54:18;16.80;;;10.50;;
11735;SDS011;5924;51.398;7.088;2022-12-18T15:57:09;15.17;;;8.60;;
11735;SDS011;5924;51.398;7.088;2022-12-18T15:59:47;12.07;;;8.97;;
11735;SDS011;5924;51.398;7.088;2022-12-18T16:02:14;12.70;;;9.90;;
11735;SDS011;5924;51.398;7.088;2022-12-18T16:04:42;16.57;;;10.53;;
11735;SDS011;5924;51.398;7.088;2022-12-18T16:07:08;14.50;;;9.27;;
11735;SDS011;5924;51.398;7.088;2022-12-18T16:09:34;19.00;;;11.17;;
11735;SDS011;5924;51.398;7.088;2022-12-18T16:12:00;17.67;;;9.87;;
11735;SDS011;5924;51.398;7.088;2022-12-18T16:14:28;19.50;;;10.10;;
11735;SDS011;5924;51.398;7.088;2022-12-18T16:16:55;19.37;;;10.53;;
11735;SDS011;5924;51.398;7.088;2022-12-18T16:19:23;20.20;;;11.80;;
11735;SDS011;5924;51.398;7.088;2022-12-18T16:21:50;20.90;;;10.17;;
11735;SDS011;5924;51.398;7.088;2022-12-18T16:24:18;15.63;;;9.90;;
11735;SDS011;5924;51.398;7.088;2022-12-18T16:26:46;17.77;;;10.57;;
11735;SDS011;5924;51.398;7.088;2022-12-18T16:29:13;22.53;;;11.57;;
11735;SDS011;5924;51.398;7.088;2022-12-18T16:31:38;15.57;;;9.83;;
11735;SDS011;5924;51.398;7.088;2022-12-18T16:36:51;16.87;;;10.63;;
11735;SDS011;5924;51.398;7.088;2022-12-18T16:39:18;16.70;;;11.10;;
11735;SDS011;5924;51.398;7.088;2022-12-18T16:41:44;13.80;;;10.20;;
11735;SDS011;5924;51.398;7.088;2022-12-18T16:44:10;15.80;;;10.43;;
11735;SDS011;5924;51.398;7.088;2022-12-18T16:46:36;21.90;;;11.40;;
11735;SDS011;5924;51.398;7.088;2022-12-18T16:49:03;18.40;;;10.33;;
11735;SDS011;5924;51.398;7.088;2022-12-18T16:51:29;21.03;;;11.30;;
11735;SDS011;5924;51.398;7.088;2022-12-18T16:53:57;18.13;;;10.47;;
11735;SDS011;5924;51.398;7.088;2022-12-18T16:56:23;18.03;;;12.07;;
11735;SDS011;5924;51.398;7.088;2022-12-18T16:58:52;19.30;;;11.17;;
11735;SDS011;5924;51.398;7.088;2022-12-18T17:01:19;22.30;;;12.80;;
11735;SDS011;5924;51.398;7.088;2022-12-18T17:03:52;17.90;;;11.50;;
11735;SDS011;5924;51.398;7.088;2022-12-18T17:06:20;22.60;;;12.57;;
11735;SDS011;5924;51.398;7.088;2022-12-18T17:08:47;20.20;;;11.53;;
11735;SDS011;5924;51.398;7.088;2022-12-18T17:11:13;21.60;;;11.63;;
11735;SDS011;5924;51.398;7.088;2022-12-18T17:13:39;21.53;;;11.77;;
11735;SDS011;5924;51.398;7.088;2022-12-18T17:16:05;19.13;;;11.67;;
11735;SDS011;5924;51.398;7.088;2022-12-18T17:18:32;17.40;;;12.03;;
11735;SDS011;5924;51.398;7.088;2022-12-18T17:21:02;23.63;;;11.90;;
11735;SDS011;5924;51.398;7.088;2022-12-18T17:23:29;28.17;;;13.63;;